Time;durP1;ratioP1;P1;durP2;ratioP2;P2;SDS_P1;SDS_P2;PMS_P1;PMS_P2;Temp;Humidity;BMP_temperature;BMP_pressure;BME280_temperature;BME280_humidity;BME280_pressure;Samples;Min_cycle;Max_cycle;Signal;HPM_P1;HPM_P2
2023/10/21 00:02:23;;;;;;;1.75;0.50;;;;;;;-145.69;55.44;52147.34;4973168;28;20206;-80
2023/10/21 00:04:49;;;;;;;3.35;0.50;;;;;;;-145.69;55.50;52139.41;4974093;28;20218;-81
2023/10/21 00:07:15;;;;;;;0.98;0.65;;;;;;;-145.69;54.87;52155.25;4974208;28;20206;-80
2023/10/21 00:09:43;;;;;;;1.08;0.70;;;;;;;-145.69;54.63;52155.25;4974995;28;20205;-80
2023/10/21 00:12:10;;;;;;;1.17;0.40;;;;;;;-145.69;53.82;52145.34;4973363;28;20209;-80
2023/10/21 00:14:36;;;;;;;1.15;0.60;;;;;;;-145.69;53.04;52143.38;4972707;28;20199;-80
2023/10/21 00:17:04;;;;;;;0.65;0.40;;;;;;;-145.69;53.61;52151.28;4972257;28;20257;-79
2023/10/21 00:19:31;;;;;;;0.75;0.40;;;;;;;-145.69;53.72;52161.19;4972940;28;20425;-80
2023/10/21 00:21:58;;;;;;;1.85;0.50;;;;;;;-145.69;53.60;52107.72;4974662;28;20675;-81
2023/10/21 00:24:24;;;;;;;0.30;0.30;;;;;;;-145.69;53.98;52169.13;4972928;28;20198;-80
2023/10/21 00:26:52;;;;;;;0.63;0.52;;;;;;;-145.69;53.74;52123.56;4974430;28;20602;-80
2023/10/21 00:29:19;;;;;;;0.95;0.40;;;;;;;-145.69;54.38;52141.41;4974769;28;20198;-81
2023/10/21 00:31:46;;;;;;;1.15;0.50;;;;;;;-145.69;54.56;52173.09;4976052;28;20209;-81
2023/10/21 00:34:12;;;;;;;0.50;0.30;;;;;;;-145.69;54.66;52131.50;4973733;28;20202;-81
2023/10/21 00:36:38;;;;;;;1.10;0.40;;;;;;;-145.69;54.26;52127.53;4972454;28;20246;-80
2023/10/21 00:39:10;;;;;;;3.92;0.60;;;;;;;-145.69;54.20;52143.38;4972840;28;20208;-80
2023/10/21 00:41:36;;;;;;;0.40;0.40;;;;;;;-145.69;55.20;52151.28;4973536;28;20199;-80
2023/10/21 00:44:05;;;;;;;0.40;0.40;;;;;;;-145.69;55.46;52163.19;4973781;28;20206;-81
2023/10/21 00:46:32;;;;;;;0.40;0.40;;;;;;;-145.69;55.33;52141.41;4973428;28;20717;-81
2023/10/21 00:48:58;;;;;;;1.42;0.65;;;;;;;-145.69;55.34;52139.41;4975442;28;20202;-80
2023/10/21 00:51:26;;;;;;;0.63;0.40;;;;;;;-145.69;55.01;52115.66;4975756;28;20565;-80
2023/10/21 00:53:53;;;;;;;0.60;0.40;;;;;;;-145.69;55.57;52151.28;4976755;28;20198;-80
2023/10/21 00:56:20;;;;;;;0.32;0.32;;;;;;;-145.69;56.09;52123.56;4984912;28;20222;-81
2023/10/21 00:58:46;;;;;;;0.75;0.40;;;;;;;-145.69;56.17;52163.19;4971559;28;20238;-81
2023/10/21 01:01:14;;;;;;;1.15;0.40;;;;;;;-145.69;56.45;52175.06;4973506;28;20210;-81
2023/10/21 01:03:40;;;;;;;0.57;0.50;;;;;;;-145.69;56.68;52171.09;4972914;28;20205;-81
2023/10/21 01:06:07;;;;;;;1.40;0.30;;;;;;;-145.69;56.37;52184.97;4973181;28;20607;-81
2023/10/21 01:08:40;;;;;;;0.40;0.40;;;;;;;-145.69;56.45;52119.63;4956454;28;20203;-81
2023/10/21 01:11:07;;;;;;;0.60;0.43;;;;;;;-145.69;56.00;52141.41;4996105;28;20194;-82
2023/10/21 01:13:33;;;;;;;0.75;0.50;;;;;;;-145.69;55.64;52109.72;5078600;28;20194;-81
2023/10/21 01:15:59;;;;;;;0.50;0.50;;;;;;;-145.69;55.54;52131.50;5077261;28;20199;-82
2023/10/21 01:18:30;;;;;;;0.38;0.38;;;;;;;-145.69;54.77;52139.41;5014420;28;20202;-81
2023/10/21 01:20:56;;;;;;;1.05;0.38;;;;;;;-145.69;54.64;52175.06;4975625;28;20199;-82
2023/10/21 01:23:25;;;;;;;0.52;0.50;;;;;;;-145.69;54.20;52169.13;4976606;28;20190;-81
2023/10/21 01:25:51;;;;;;;0.47;0.47;;;;;;;-145.69;54.10;52173.09;4975935;28;20603;-81
2023/10/21 01:28:18;;;;;;;0.20;0.20;;;;;;;-145.69;54.21;52135.47;4975432;28;20229;-81
2023/10/21 01:30:45;;;;;;;0.50;0.40;;;;;;;-145.69;53.56;52131.50;4975202;28;20202;-81
2023/10/21 01:33:11;;;;;;;2.90;0.40;;;;;;;-145.69;53.68;52155.25;4975546;28;20604;-81
2023/10/21 01:35:37;;;;;;;0.20;0.20;;;;;;;-145.69;53.50;52165.16;4973987;28;20238;-81
2023/10/21 01:38:04;;;;;;;0.40;0.40;;;;;;;-145.69;53.34;52171.09;4974838;28;20238;-81
2023/10/21 01:40:32;;;;;;;0.38;0.22;;;;;;;-145.69;53.12;52167.13;4976585;28;20206;-81
2023/10/21 01:42:59;;;;;;;0.30;0.30;;;;;;;-145.69;52.70;52165.16;4975265;28;20198;-81
2023/10/21 01:45:25;;;;;;;0.30;0.30;;;;;;;-145.69;53.00;52159.22;4972016;28;20210;-80
2023/10/21 01:47:51;;;;;;;0.45;0.45;;;;;;;-145.69;53.00;52175.06;4971899;28;20235;-81
2023/10/21 01:50:18;;;;;;;1.02;0.30;;;;;;;-145.69;53.24;52161.19;4972666;28;20201;-80
2023/10/21 01:52:45;;;;;;;0.38;0.38;;;;;;;-145.69;53.22;52151.28;4973346;28;20198;-81
2023/10/21 01:55:11;;;;;;;0.40;0.30;;;;;;;-145.69;53.64;52137.44;4973347;28;20202;-80
2023/10/21 01:57:40;;;;;;;0.50;0.30;;;;;;;-145.69;53.57;52155.25;4979145;28;20230;-81
2023/10/21 02:00:09;;;;;;;0.52;0.28;;;;;;;-145.69;53.42;52147.34;4973952;28;20199;-81
2023/10/21 02:02:36;;;;;;;0.30;0.30;;;;;;;-145.69;53.25;52167.13;4974836;28;20206;-80
2023/10/21 02:05:04;;;;;;;0.47;0.30;;;;;;;-145.69;53.19;52155.25;4977445;28;20202;-82
2023/10/21 02:07:30;;;;;;;1.00;0.40;;;;;;;-145.69;53.71;52147.34;4977206;28;20737;-80
2023/10/21 02:09:57;;;;;;;0.38;0.38;;;;;;;-145.69;53.67;52175.06;4977033;28;20194;-80
2023/10/21 02:12:23;;;;;;;0.20;0.20;;;;;;;-145.69;54.28;52171.09;4979902;28;20209;-81
2023/10/21 02:14:51;;;;;;;0.30;0.30;;;;;;;-145.69;54.42;52143.38;4977014;28;20202;-80
2023/10/21 02:17:18;;;;;;;0.30;0.30;;;;;;;-145.69;54.62;52192.88;4977722;28;20237;-81
2023/10/21 02:19:44;;;;;;;3.30;0.30;;;;;;;-145.69;56.30;52163.19;4979227;28;20229;-81
2023/10/21 02:22:11;;;;;;;0.30;0.30;;;;;;;-145.69;56.20;52161.19;4981786;28;20199;-81
2023/10/21 02:24:37;;;;;;;1.33;0.35;;;;;;;-145.69;56.77;52157.25;4981206;28;20648;-81
2023/10/21 02:27:04;;;;;;;0.80;0.38;;;;;;;-145.69;56.77;52184.97;4980945;28;20538;-80
2023/10/21 02:29:31;;;;;;;1.50;0.55;;;;;;;-145.69;57.42;52206.75;4978067;28;20217;-80
2023/10/21 02:31:59;;;;;;;0.63;0.38;;;;;;;-145.69;59.36;52173.09;4981117;28;20202;-81
2023/10/21 02:34:26;;;;;;;0.30;0.30;;;;;;;-145.69;58.65;52186.94;4976780;28;20210;-80
2023/10/21 02:36:52;;;;;;;2.38;0.40;;;;;;;-145.69;58.38;52194.88;4977547;28;20230;-80
2023/10/21 02:39:18;;;;;;;0.40;0.40;;;;;;;-145.69;58.29;52214.66;4972954;28;20213;-80
2023/10/21 02:41:45;;;;;;;0.75;0.30;;;;;;;-145.69;58.07;52192.88;4972405;28;20201;-80
2023/10/21 02:44:12;;;;;;;0.68;0.30;;;;;;;-145.69;58.17;52190.91;4977185;28;20214;-80
2023/10/21 02:46:38;;;;;;;0.38;0.38;;;;;;;-145.69;57.65;52165.16;4974796;28;20206;-81
2023/10/21 02:49:06;;;;;;;0.32;0.25;;;;;;;-145.69;57.35;52216.66;4980220;28;20206;-81
2023/10/21 02:51:33;;;;;;;0.70;0.40;;;;;;;-145.69;57.38;52171.09;4978571;28;20202;-80
2023/10/21 02:53:59;;;;;;;0.30;0.30;;;;;;;-145.69;57.06;52182.97;4978249;28;20198;-80
2023/10/21 02:56:25;;;;;;;0.60;0.40;;;;;;;-145.69;56.24;52200.81;4976735;28;20211;-80
2023/10/21 02:58:52;;;;;;;0.85;0.70;;;;;;;-145.69;55.79;52163.19;4977712;28;20202;-80
2023/10/21 03:01:20;;;;;;;1.02;0.60;;;;;;;-145.69;55.31;52200.81;4978777;28;20203;-81
2023/10/21 03:03:47;;;;;;;0.30;0.30;;;;;;;-145.69;54.94;52139.41;4986764;28;20210;-81
2023/10/21 03:06:17;;;;;;;3.10;0.35;;;;;;;-145.69;54.14;52155.25;4981462;28;20201;-81
2023/10/21 03:08:44;;;;;;;2.50;1.27;;;;;;;-145.69;53.92;52167.13;4978375;28;20252;-81
2023/10/21 03:11:10;;;;;;;0.28;0.28;;;;;;;-145.69;54.31;52161.19;4978903;28;20209;-80
2023/10/21 03:13:38;;;;;;;0.60;0.38;;;;;;;-145.69;54.50;52167.13;4978578;28;20248;-80
2023/10/21 03:16:05;;;;;;;0.40;0.40;;;;;;;-145.69;54.71;52163.19;5003661;28;20199;-80
2023/10/21 03:18:32;;;;;;;1.08;0.40;;;;;;;-145.69;54.98;52147.34;5000779;28;20226;-81
2023/10/21 03:20:58;;;;;;;0.40;0.40;;;;;;;-145.69;54.96;52177.03;4981044;28;20206;-81
2023/10/21 03:23:26;;;;;;;0.52;0.30;;;;;;;-145.69;55.53;52151.28;4980277;28;20207;-80
2023/10/21 03:25:56;;;;;;;0.30;0.30;;;;;;;-145.69;54.88;52171.09;4977822;28;20414;-80
2023/10/21 03:28:23;;;;;;;0.25;0.25;;;;;;;-145.69;55.43;52141.41;4977057;28;20745;-81
2023/10/21 03:30:50;;;;;;;0.43;0.30;;;;;;;-145.69;55.01;52169.13;4977235;28;20202;-81
2023/10/21 03:33:16;;;;;;;1.33;0.30;;;;;;;-145.69;55.29;52157.25;4979628;28;20202;-81
2023/10/21 03:35:51;;;;;;;0.43;0.43;;;;;;;-145.69;54.82;52171.09;4982593;28;20245;-81
2023/10/21 03:38:18;;;;;;;0.50;0.43;;;;;;;-145.69;54.74;52129.50;4980205;28;20321;-80
2023/10/21 03:40:54;;;;;;;0.40;0.40;;;;;;;-145.69;55.11;52141.41;4976952;28;20293;-80
2023/10/21 03:43:21;;;;;;;0.68;0.40;;;;;;;-145.69;55.00;52157.25;4980262;28;20206;-80
2023/10/21 03:45:47;;;;;;;0.57;0.40;;;;;;;-145.69;55.35;52143.38;4979117;28;20229;-80
2023/10/21 03:48:14;;;;;;;0.30;0.30;;;;;;;-145.69;55.31;52155.25;4977259;28;20214;-80
2023/10/21 03:50:40;;;;;;;0.47;0.40;;;;;;;-145.69;55.25;52117.63;4976140;28;20206;-80
2023/10/21 03:53:07;;;;;;;3.03;0.40;;;;;;;-145.69;55.34;52149.31;4976938;28;20202;-80
2023/10/21 03:55:33;;;;;;;1.00;0.40;;;;;;;-145.69;55.68;52163.19;4977519;28;20198;-81
2023/10/21 03:58:01;;;;;;;0.70;0.40;;;;;;;-145.69;55.88;52167.13;4979482;28;20222;-80
2023/10/21 04:00:28;;;;;;;0.82;0.50;;;;;;;-145.69;56.06;52127.53;4977285;28;20205;-80
2023/10/21 04:02:54;;;;;;;0.77;0.52;;;;;;;-145.69;56.14;52151.28;4976080;28;20202;-80
2023/10/21 04:05:20;;;;;;;0.98;0.50;;;;;;;-145.69;56.67;52143.38;4974120;28;20537;-80
2023/10/21 04:07:47;;;;;;;0.63;0.32;;;;;;;-145.69;56.92;52135.47;4973474;28;20225;-80
2023/10/21 04:10:13;;;;;;;0.77;0.45;;;;;;;-145.69;56.88;52143.38;4973063;28;20663;-80
2023/10/21 04:12:40;;;;;;;0.50;0.40;;;;;;;-145.69;56.74;52155.25;4973592;28;20213;-80
2023/10/21 04:15:09;;;;;;;0.30;0.30;;;;;;;-145.69;56.44;52137.44;4974784;28;20656;-80
2023/10/21 04:17:35;;;;;;;3.50;0.32;;;;;;;-145.69;56.59;52153.28;4973649;28;20229;-79
2023/10/21 04:20:03;;;;;;;1.55;0.50;;;;;;;-145.69;56.85;52151.28;4974104;28;20207;-80
2023/10/21 04:22:30;;;;;;;0.30;0.30;;;;;;;-145.69;56.60;52127.53;4974127;28;20640;-80
2023/10/21 04:24:56;;;;;;;4.80;0.40;;;;;;;-145.69;56.47;52171.09;4973300;28;20206;-80
2023/10/21 04:27:22;;;;;;;0.30;0.30;;;;;;;-145.69;56.77;52175.06;4973494;28;20206;-80
2023/10/21 04:29:49;;;;;;;0.52;0.40;;;;;;;-145.69;56.76;52145.34;4974527;28;20219;-80
2023/10/21 04:32:17;;;;;;;0.95;0.40;;;;;;;-145.69;56.57;52155.25;4973411;28;20202;-80
2023/10/21 04:34:43;;;;;;;0.98;0.40;;;;;;;-145.69;56.69;52143.38;4973203;28;20382;-80
2023/10/21 04:37:09;;;;;;;0.28;0.28;;;;;;;-145.69;56.75;52167.13;4973070;28;20319;-79
2023/10/21 04:39:35;;;;;;;0.20;0.20;;;;;;;-145.69;56.48;52155.25;4973109;28;20648;-79
2023/10/21 04:42:04;;;;;;;0.20;0.20;;;;;;;-145.69;56.87;52147.34;4972903;28;20194;-80
2023/10/21 04:44:31;;;;;;;0.30;0.30;;;;;;;-145.69;56.84;52153.28;4972233;28;20202;-80
2023/10/21 04:46:57;;;;;;;0.40;0.40;;;;;;;-145.69;56.94;52186.94;4972449;28;20209;-80
2023/10/21 04:49:25;;;;;;;0.80;0.32;;;;;;;-145.69;57.03;52139.41;4972612;28;20213;-80
2023/10/21 04:51:52;;;;;;;0.40;0.38;;;;;;;-145.69;57.38;52157.25;4972697;28;20198;-80
2023/10/21 04:54:18;;;;;;;0.50;0.40;;;;;;;-145.69;56.88;52143.38;4974514;28;20198;-80
2023/10/21 04:56:44;;;;;;;0.20;0.20;;;;;;;-145.69;56.85;52167.13;4973820;28;20202;-80
2023/10/21 04:59:11;;;;;;;1.35;0.50;;;;;;;-145.69;56.29;52171.09;4972949;28;20229;-80
2023/10/21 05:01:37;;;;;;;0.30;0.30;;;;;;;-145.69;56.57;52200.81;4973565;28;20206;-80
2023/10/21 05:04:04;;;;;;;0.40;0.40;;;;;;;-145.69;56.64;52155.25;4972393;28;20206;-80
2023/10/21 05:06:32;;;;;;;0.30;0.30;;;;;;;-145.69;56.83;52153.28;4972822;28;20211;-79
2023/10/21 05:08:59;;;;;;;0.30;0.30;;;;;;;-145.69;57.34;52175.06;4970396;28;20531;-79
2023/10/21 05:11:25;;;;;;;0.35;0.30;;;;;;;-145.69;57.50;52139.41;4977327;28;20203;-80
2023/10/21 05:13:52;;;;;;;1.45;0.93;;;;;;;-145.69;57.64;52145.34;4973684;28;20213;-80
2023/10/21 05:16:18;;;;;;;0.52;0.40;;;;;;;-145.69;57.92;52177.03;4971297;28;20234;-80
2023/10/21 05:18:45;;;;;;;1.00;0.30;;;;;;;-145.69;57.85;52155.25;4972493;28;20230;-79
2023/10/21 05:21:11;;;;;;;0.32;0.30;;;;;;;-145.69;57.81;52196.84;4972664;28;20198;-80
2023/10/21 05:23:39;;;;;;;0.35;0.30;;;;;;;-145.69;58.13;52155.25;4972347;28;20206;-80
2023/10/21 05:26:06;;;;;;;4.00;0.45;;;;;;;-145.69;58.89;52208.72;5000063;28;20218;-80
2023/10/21 05:28:32;;;;;;;0.40;0.40;;;;;;;-145.69;58.94;52177.03;5062830;28;20225;-80
2023/10/21 05:30:59;;;;;;;0.45;0.30;;;;;;;-145.69;59.15;52143.38;4972937;28;20206;-80
2023/10/21 05:33:25;;;;;;;0.60;0.40;;;;;;;-145.69;59.35;52175.06;4973858;28;20202;-80
2023/10/21 05:35:52;;;;;;;0.68;0.40;;;;;;;-145.69;59.96;52157.25;4972429;28;20234;-80
2023/10/21 05:38:19;;;;;;;1.23;0.30;;;;;;;-145.69;59.26;52147.34;4971605;28;20221;-80
2023/10/21 05:40:46;;;;;;;0.95;0.40;;;;;;;-145.69;58.86;52171.09;4971862;28;20544;-79
2023/10/21 05:43:14;;;;;;;0.40;0.40;;;;;;;-145.69;59.44;52200.81;4972116;28;20305;-80
2023/10/21 05:45:41;;;;;;;0.90;0.28;;;;;;;-145.69;59.21;52186.94;4972204;28;20561;-80
2023/10/21 05:48:07;;;;;;;0.47;0.47;;;;;;;-145.69;59.34;52147.34;4971585;28;20202;-80
2023/10/21 05:50:34;;;;;;;0.50;0.50;;;;;;;-145.69;60.37;52159.22;4971338;28;20199;-80
2023/10/21 05:53:00;;;;;;;0.85;0.40;;;;;;;-145.69;59.85;52175.06;4972100;28;20214;-80
2023/10/21 05:55:27;;;;;;;0.60;0.43;;;;;;;-145.69;60.63;52204.75;4971565;28;20555;-80
2023/10/21 05:57:55;;;;;;;0.65;0.45;;;;;;;-145.69;61.56;52190.91;4971600;28;20321;-80
2023/10/21 06:00:22;;;;;;;0.70;0.40;;;;;;;-145.69;61.10;52202.78;4971895;28;20660;-80
2023/10/21 06:02:48;;;;;;;0.50;0.50;;;;;;;-145.69;61.15;52192.88;4971781;28;20202;-80
2023/10/21 06:05:15;;;;;;;5.38;0.63;;;;;;;-145.69;61.65;52151.28;4971609;28;20213;-80
2023/10/21 06:07:41;;;;;;;0.50;0.47;;;;;;;-145.69;61.61;52190.91;4971706;28;20203;-80
2023/10/21 06:10:09;;;;;;;1.27;0.50;;;;;;;-145.69;62.13;52204.75;4971776;28;20206;-81
2023/10/21 06:12:35;;;;;;;0.80;0.77;;;;;;;-145.69;61.46;52192.88;4971714;28;20206;-80
2023/10/21 06:15:04;;;;;;;2.70;0.40;;;;;;;-145.69;61.92;52194.88;4972333;28;20202;-80
2023/10/21 06:17:30;;;;;;;0.40;0.40;;;;;;;-145.69;61.31;52190.91;4971099;28;20578;-80
2023/10/21 06:19:56;;;;;;;3.40;0.57;;;;;;;-145.69;61.73;52137.44;4971063;28;20199;-80
2023/10/21 06:22:23;;;;;;;0.40;0.40;;;;;;;-145.69;62.03;52194.88;4971836;28;20565;-80
2023/10/21 06:24:49;;;;;;;0.55;0.52;;;;;;;-145.69;62.37;52179.03;4974486;28;20652;-80
2023/10/21 06:27:16;;;;;;;0.30;0.30;;;;;;;-145.69;62.29;52238.44;4974789;28;20206;-80
2023/10/21 06:29:42;;;;;;;0.40;0.40;;;;;;;-145.69;62.65;52151.28;4975205;28;20194;-81
2023/10/21 06:32:10;;;;;;;0.37;0.37;;;;;;;-145.69;62.66;52202.78;4974583;28;20202;-80
2023/10/21 06:34:36;;;;;;;0.43;0.43;;;;;;;-145.69;62.42;52220.59;4974995;28;20206;-81
2023/10/21 06:37:03;;;;;;;0.50;0.50;;;;;;;-145.69;63.02;52157.25;4974108;28;20701;-80
2023/10/21 06:39:31;;;;;;;1.13;0.60;;;;;;;-145.69;63.09;52210.72;4973594;28;20225;-79
2023/10/21 06:41:58;;;;;;;0.50;0.50;;;;;;;-145.69;62.37;52218.63;4974416;28;20229;-80
2023/10/21 06:44:24;;;;;;;0.40;0.40;;;;;;;-145.69;62.48;52171.09;4974388;28;20213;-80
2023/10/21 06:46:51;;;;;;;0.40;0.40;;;;;;;-145.69;62.19;52234.47;4974840;28;20213;-80
2023/10/21 06:49:19;;;;;;;0.40;0.35;;;;;;;-145.69;60.10;52182.97;4974766;28;20301;-80
2023/10/21 06:51:48;;;;;;;0.30;0.30;;;;;;;-145.69;60.20;52182.97;4973965;28;20454;-79
2023/10/21 06:54:15;;;;;;;0.30;0.30;;;;;;;-145.69;59.50;52220.59;4974953;28;20202;-80
2023/10/21 06:56:42;;;;;;;1.10;0.60;;;;;;;-145.69;59.58;52161.19;4976012;28;20221;-81
2023/10/21 06:59:09;;;;;;;0.40;0.40;;;;;;;-145.69;58.78;52175.06;4974075;28;20222;-80
2023/10/21 07:01:35;;;;;;;0.50;0.43;;;;;;;-145.69;58.58;52167.13;4976443;28;20233;-80
2023/10/21 07:04:03;;;;;;;0.40;0.40;;;;;;;-145.69;58.31;52186.94;4975976;28;20301;-80
2023/10/21 07:06:31;;;;;;;0.60;0.50;;;;;;;-145.69;57.79;52171.09;4977385;28;20234;-80
2023/10/21 07:08:57;;;;;;;0.70;0.60;;;;;;;-145.69;57.59;52179.03;4984125;28;20194;-80
2023/10/21 07:11:24;;;;;;;0.38;0.38;;;;;;;-145.69;57.10;52171.09;4964905;28;20202;-81
2023/10/21 07:13:51;;;;;;;1.17;0.60;;;;;;;-145.69;57.02;52163.19;4975241;28;20210;-81
2023/10/21 07:16:17;;;;;;;1.00;0.50;;;;;;;-145.69;56.24;52206.75;4967918;28;20197;-81
2023/10/21 07:18:43;;;;;;;1.77;0.60;;;;;;;-145.69;56.05;52182.97;4989157;28;20223;-80
2023/10/21 07:21:10;;;;;;;1.35;0.80;;;;;;;-145.69;55.89;52182.97;4976387;28;20209;-80
2023/10/21 07:23:38;;;;;;;2.47;0.90;;;;;;;-145.69;56.27;52194.88;4975757;28;20210;-80
2023/10/21 07:26:04;;;;;;;3.25;0.85;;;;;;;-145.69;55.76;52159.22;4976521;28;20224;-81
2023/10/21 07:28:33;;;;;;;1.48;0.60;;;;;;;-145.69;56.21;52214.66;4976233;28;20206;-81
2023/10/21 07:31:00;;;;;;;1.38;0.80;;;;;;;-145.69;55.88;52167.13;4974636;28;20194;-80
2023/10/21 07:33:27;;;;;;;2.05;0.50;;;;;;;-145.69;55.92;52147.34;4975502;28;20209;-80
2023/10/21 07:35:53;;;;;;;1.02;0.30;;;;;;;-145.69;55.97;52175.06;4974871;28;20230;-81
2023/10/21 07:38:20;;;;;;;0.52;0.50;;;;;;;-145.69;55.39;52161.19;4978018;28;20280;-80
2023/10/21 07:40:49;;;;;;;1.48;0.50;;;;;;;-145.69;55.04;52147.34;4980604;28;20198;-80
2023/10/21 07:43:16;;;;;;;1.52;0.52;;;;;;;-145.69;54.86;52165.16;4982984;28;20198;-80
2023/10/21 07:45:42;;;;;;;1.05;0.80;;;;;;;-145.69;54.71;52165.16;4981028;28;20545;-80
2023/10/21 07:48:09;;;;;;;5.20;1.00;;;;;;;-145.69;54.61;52155.25;4983347;28;20206;-80
2023/10/21 07:50:36;;;;;;;1.83;0.88;;;;;;;-145.69;54.61;52175.06;4979370;28;20234;-79
2023/10/21 07:53:03;;;;;;;3.38;0.43;;;;;;;-145.69;53.67;52155.25;5029889;28;20217;-79
2023/10/21 07:55:29;;;;;;;1.73;0.88;;;;;;;-145.69;52.97;52139.41;5060626;28;20206;-79
2023/10/21 07:57:57;;;;;;;1.55;0.60;;;;;;;-145.69;53.27;52149.31;4978087;28;20202;-79
2023/10/21 08:00:25;;;;;;;1.95;0.65;;;;;;;-145.69;51.82;52127.53;4976889;28;20206;-79
2023/10/21 08:02:51;;;;;;;1.30;0.77;;;;;;;-145.69;51.66;52149.31;4974070;28;20718;-81
2023/10/21 08:05:18;;;;;;;0.82;0.63;;;;;;;-145.69;51.39;52143.38;4973186;28;20198;-81
2023/10/21 08:07:44;;;;;;;2.47;0.60;;;;;;;-145.69;49.41;52131.50;4972828;28;20680;-82
2023/10/21 08:10:14;;;;;;;0.35;0.30;;;;;;;-145.69;49.68;52129.50;4973085;28;20199;-81
2023/10/21 08:12:40;;;;;;;2.83;0.40;;;;;;;-145.69;49.38;52129.50;4972726;28;20260;-81
2023/10/21 08:15:09;;;;;;;1.50;0.40;;;;;;;-145.69;48.62;52151.28;4972973;28;20198;-83
2023/10/21 08:17:37;;;;;;;3.05;0.50;;;;;;;-145.69;49.46;52147.34;4973130;28;20256;-82
2023/10/21 08:20:04;;;;;;;1.17;0.30;;;;;;;-145.69;48.79;52141.41;4973853;28;20241;-83
2023/10/21 08:22:33;;;;;;;0.50;0.50;;;;;;;-145.69;48.31;52139.41;4971227;28;20576;-81
2023/10/21 08:24:59;;;;;;;1.65;0.50;;;;;;;-145.69;48.68;52143.38;4972862;28;20229;-82
2023/10/21 08:27:26;;;;;;;0.55;0.30;;;;;;;-145.69;48.11;52107.72;4972002;28;20421;-81
2023/10/21 08:29:53;;;;;;;3.90;0.47;;;;;;;-145.69;49.32;52131.50;4970941;28;20213;-81
2023/10/21 08:32:21;;;;;;;1.80;0.65;;;;;;;-145.69;48.82;52117.63;4972406;28;20208;-82
2023/10/21 08:34:47;;;;;;;0.68;0.38;;;;;;;-145.69;48.20;52127.53;4972268;28;20213;-81
2023/10/21 08:37:16;;;;;;;3.28;0.45;;;;;;;-145.69;48.71;52171.09;4972234;28;20229;-81
2023/10/21 08:39:43;;;;;;;1.67;0.60;;;;;;;-145.69;49.01;52145.34;4972284;28;20596;-82
2023/10/21 08:42:10;;;;;;;3.28;0.70;;;;;;;-145.69;48.94;52133.47;4972482;28;20538;-81
2023/10/21 08:44:37;;;;;;;0.73;0.47;;;;;;;-145.69;48.87;52123.56;4972182;28;20217;-81
2023/10/21 08:47:06;;;;;;;0.68;0.40;;;;;;;-145.69;48.12;52103.78;4971732;28;20198;-81
2023/10/21 08:49:35;;;;;;;1.85;0.80;;;;;;;-145.69;48.24;52143.38;4972215;28;20202;-81
2023/10/21 08:52:02;;;;;;;2.08;0.40;;;;;;;-145.69;47.94;52125.56;4972314;28;20568;-82
2023/10/21 08:54:32;;;;;;;0.60;0.35;;;;;;;-145.69;48.19;52115.66;4971857;28;20206;-81
2023/10/21 08:56:58;;;;;;;2.20;0.50;;;;;;;-145.69;48.67;52151.28;4971810;28;20209;-83
2023/10/21 08:59:26;;;;;;;1.63;0.73;;;;;;;-145.69;47.89;52131.50;4978733;28;20283;-81
2023/10/21 09:01:52;;;;;;;1.05;0.45;;;;;;;-145.69;46.68;52125.56;4986954;28;20198;-81
2023/10/21 09:04:20;;;;;;;2.75;0.40;;;;;;;-145.69;46.85;52107.72;4980469;28;20212;-80
2023/10/21 09:07:02;;;;;;;0.85;0.40;;;;;;;-145.69;46.00;52080.00;4979734;28;20210;-80
2023/10/21 09:09:30;;;;;;;3.15;0.47;;;;;;;-145.69;46.56;52103.78;4962613;28;20257;-82
2023/10/21 09:12:04;;;;;;;2.38;0.50;;;;;;;-145.69;44.80;52129.50;4957793;28;20298;-81
2023/10/21 09:14:32;;;;;;;1.58;0.70;;;;;;;-145.69;45.56;52066.16;4961663;28;20198;-81
2023/10/21 09:16:58;;;;;;;1.95;0.40;;;;;;;-145.69;45.28;52127.53;4970170;28;20205;-81
2023/10/21 09:19:26;;;;;;;0.40;0.38;;;;;;;-145.69;45.24;52107.72;4980827;28;20226;-81
2023/10/21 09:21:53;;;;;;;1.23;0.50;;;;;;;-145.69;44.88;52105.75;4981567;28;20607;-82
2023/10/21 09:24:23;;;;;;;0.73;0.45;;;;;;;-145.69;44.45;52080.00;4982746;28;20202;-82
2023/10/21 09:26:50;;;;;;;3.50;0.68;;;;;;;-145.69;44.01;52103.78;4985370;28;20256;-81
2023/10/21 09:29:19;;;;;;;1.20;0.60;;;;;;;-145.69;44.14;52083.97;4984849;28;20300;-81
2023/10/21 09:31:48;;;;;;;0.95;0.30;;;;;;;-145.69;44.52;52115.66;4983780;28;20216;-82
2023/10/21 09:34:24;;;;;;;1.17;0.32;;;;;;;-145.69;44.06;52076.03;4985583;28;20209;-82
2023/10/21 09:36:52;;;;;;;0.75;0.40;;;;;;;-145.69;43.42;52076.03;4988588;28;20255;-82
2023/10/21 09:39:18;;;;;;;2.13;0.57;;;;;;;-145.69;43.51;52085.94;4973737;28;20226;-82
2023/10/21 09:41:46;;;;;;;1.65;0.40;;;;;;;-145.69;43.39;52083.97;4983502;28;20209;-81
2023/10/21 09:44:14;;;;;;;1.35;0.57;;;;;;;-145.69;43.31;52068.13;4981775;28;20198;-82
2023/10/21 09:46:43;;;;;;;1.05;0.60;;;;;;;-145.69;41.79;52056.25;4983108;28;20198;-81
2023/10/21 09:49:12;;;;;;;0.57;0.32;;;;;;;-145.69;42.33;52083.97;4979181;28;20250;-82
2023/10/21 09:51:51;;;;;;;0.98;0.40;;;;;;;-145.69;42.28;52078.03;4986443;28;20214;-82
2023/10/21 09:54:40;;;;;;;2.75;0.57;;;;;;;-145.69;41.72;52042.38;4983847;28;20210;-81
2023/10/21 09:57:10;;;;;;;1.63;0.75;;;;;;;-145.69;42.46;52072.09;4977705;28;20217;-81
2023/10/21 09:59:38;;;;;;;1.83;0.40;;;;;;;-145.69;42.58;52076.03;4977376;28;20308;-81
2023/10/21 10:02:06;;;;;;;1.55;0.50;;;;;;;-145.69;41.71;52068.13;4982122;28;20205;-82
2023/10/21 10:04:35;;;;;;;2.35;0.40;;;;;;;-145.69;41.56;52080.00;4981776;28;20198;-82
2023/10/21 10:07:06;;;;;;;3.30;0.80;;;;;;;-145.69;41.72;52087.94;4981953;28;20179;-82
2023/10/21 10:09:33;;;;;;;1.13;0.30;;;;;;;-145.69;40.88;52080.00;4979893;28;20249;-81
2023/10/21 10:12:04;;;;;;;1.13;0.43;;;;;;;-145.69;41.39;52068.13;4977339;28;20289;-80
2023/10/21 10:14:33;;;;;;;3.20;0.52;;;;;;;-145.69;41.51;52072.09;4976409;28;20236;-80
2023/10/21 10:17:00;;;;;;;1.35;0.40;;;;;;;-145.69;41.32;52078.03;4974659;28;20199;-81
2023/10/21 10:19:37;;;;;;;0.73;0.38;;;;;;;-145.69;41.12;52070.09;4980720;28;20415;-82
2023/10/21 10:22:17;;;;;;;2.30;0.60;;;;;;;-145.69;40.96;52062.19;4978339;28;20209;-81
2023/10/21 10:24:50;;;;;;;0.40;0.30;;;;;;;-145.69;41.24;52016.66;4979477;28;20206;-81
2023/10/21 10:27:18;;;;;;;0.93;0.55;;;;;;;-145.69;40.90;52046.34;4977356;28;20688;-82
2023/10/21 10:29:50;;;;;;;2.13;0.82;;;;;;;-145.69;40.87;52062.19;4975003;28;20281;-82
2023/10/21 10:32:16;;;;;;;0.40;0.40;;;;;;;-145.69;40.60;52062.19;4976334;28;20672;-81
2023/10/21 10:34:52;;;;;;;1.38;0.47;;;;;;;-145.69;39.99;52066.16;4973593;28;20206;-82
2023/10/21 10:37:26;;;;;;;1.05;0.30;;;;;;;-145.69;39.85;52076.03;4973579;28;20234;-81
2023/10/21 10:39:54;;;;;;;1.75;0.45;;;;;;;-145.69;40.30;52040.41;4975093;28;20308;-81
2023/10/21 10:42:20;;;;;;;0.28;0.28;;;;;;;-145.69;40.59;52040.41;4975986;28;20596;-81
2023/10/21 10:44:50;;;;;;;1.10;0.70;;;;;;;-145.69;40.14;52078.03;4975647;28;20653;-82
2023/10/21 10:47:17;;;;;;;2.38;0.40;;;;;;;-145.69;40.99;52020.59;4976106;28;20209;-82
2023/10/21 10:50:12;;;;;;;0.63;0.40;;;;;;;-145.69;38.36;51984.97;4976240;28;20264;-81
2023/10/21 10:52:39;;;;;;;1.25;0.45;;;;;;;-145.69;39.33;52040.41;4956759;28;20273;-81
2023/10/21 10:55:08;;;;;;;0.55;0.40;;;;;;;-145.69;39.29;52030.50;4953982;28;20205;-82
2023/10/21 10:57:34;;;;;;;1.27;0.40;;;;;;;-145.69;39.53;52038.44;4959364;28;20225;-82
2023/10/21 11:00:03;;;;;;;1.77;0.40;;;;;;;-145.69;38.88;52008.72;4974939;28;20236;-81
2023/10/21 11:02:42;;;;;;;0.77;0.50;;;;;;;-145.69;38.74;52044.38;4970572;28;20198;-82
2023/10/21 11:05:09;;;;;;;1.13;0.40;;;;;;;-145.69;38.59;52000.81;4971788;28;20205;-81
2023/10/21 11:07:35;;;;;;;1.30;0.38;;;;;;;-145.69;38.93;52032.47;4972830;28;20210;-82
2023/10/21 11:10:06;;;;;;;1.23;0.30;;;;;;;-145.69;38.88;52026.53;4977632;28;20206;-81
2023/10/21 11:12:33;;;;;;;0.80;0.40;;;;;;;-145.69;38.39;52012.69;4967198;28;20285;-82
2023/10/21 11:15:01;;;;;;;1.42;0.40;;;;;;;-145.69;38.33;51992.88;4976732;28;20652;-81
2023/10/21 11:17:29;;;;;;;2.03;0.50;;;;;;;-145.69;38.66;52004.75;4977636;28;20209;-82
2023/10/21 11:19:56;;;;;;;0.88;0.40;;;;;;;-145.69;38.04;51992.88;4976556;28;20692;-82